Time;durP1;ratioP1;P1;durP2;ratioP2;P2;SDS_P1;SDS_P2;PMS_P1;PMS_P2;Temp;Humidity;BMP_temperature;BMP_pressure;BME280_temperature;BME280_humidity;BME280_pressure;Samples;Min_cycle;Max_cycle;Signal;HPM_P1;HPM_P2
2022/08/29 00:02:13;;;;;;;5.82;1.60;;;15.20;72.40;;;;;;5076430;28;20369;-38
2022/08/29 00:04:38;;;;;;;6.50;1.67;;;15.20;72.50;;;;;;5075797;28;20381;-39
2022/08/29 00:07:04;;;;;;;3.55;1.52;;;15.20;72.40;;;;;;5076058;28;20108;-39
2022/08/29 00:09:32;;;;;;;10.15;2.33;;;15.20;72.40;;;;;;5074903;28;20066;-39
2022/08/29 00:11:58;;;;;;;2.97;1.38;;;15.20;72.60;;;;;;5076310;28;20048;-38
2022/08/29 00:14:23;;;;;;;7.22;1.80;;;15.10;72.60;;;;;;5075771;28;20061;-39
2022/08/29 00:16:49;;;;;;;2.25;1.13;;;15.10;72.70;;;;;;5076477;28;20043;-38
2022/08/29 00:19:15;;;;;;;2.90;1.08;;;15.10;72.90;;;;;;5076086;28;20492;-38
2022/08/29 00:21:41;;;;;;;3.50;1.40;;;15.10;73.00;;;;;;5075793;28;20024;-38
2022/08/29 00:24:06;;;;;;;7.22;1.80;;;15.10;73.00;;;;;;5075781;28;20025;-38
2022/08/29 00:26:34;;;;;;;7.63;1.42;;;15.10;73.10;;;;;;5076613;28;20079;-39
2022/08/29 00:29:00;;;;;;;3.60;1.30;;;15.10;73.00;;;;;;5075782;28;20108;-37
2022/08/29 00:31:26;;;;;;;8.35;1.65;;;15.10;73.20;;;;;;5075795;28;20067;-39
2022/08/29 00:33:51;;;;;;;6.20;1.52;;;15.00;73.10;;;;;;5074513;28;20036;-38
2022/08/29 00:36:17;;;;;;;1.67;1.27;;;15.00;73.30;;;;;;5075570;28;20157;-38
2022/08/29 00:38:43;;;;;;;2.20;1.20;;;15.00;73.40;;;;;;5075156;28;20469;-39
2022/08/29 00:41:09;;;;;;;2.47;1.33;;;15.00;73.60;;;;;;5074927;28;20028;-39
2022/08/29 00:43:36;;;;;;;5.97;2.03;;;14.90;73.60;;;;;;5075032;28;20024;-38
2022/08/29 00:46:26;;;;;;;4.78;1.48;;;14.90;73.60;;;;;;5075007;28;20037;-39
2022/08/29 00:49:26;;;;;;;2.20;1.50;;;14.80;73.80;;;;;;5075430;28;20089;-39
2022/08/29 00:51:53;;;;;;;4.22;1.67;;;14.80;74.00;;;;;;5062988;28;20369;-38
2022/08/29 00:54:19;;;;;;;4.25;1.42;;;14.80;74.10;;;;;;5073608;28;20119;-38
2022/08/29 00:56:45;;;;;;;10.20;2.85;;;14.80;74.20;;;;;;5075037;28;20099;-40
2022/08/29 00:59:19;;;;;;;6.35;1.35;;;14.80;74.10;;;;;;5074916;28;20017;-39
2022/08/29 01:01:45;;;;;;;3.13;1.42;;;14.80;74.10;;;;;;5073311;28;20492;-38
2022/08/29 01:04:11;;;;;;;6.18;1.85;;;14.80;74.30;;;;;;5074436;28;20385;-39
2022/08/29 01:06:39;;;;;;;3.80;1.52;;;14.80;74.30;;;;;;5074515;28;20021;-39
2022/08/29 01:09:05;;;;;;;5.35;1.88;;;14.70;74.50;;;;;;5074401;28;20020;-39
2022/08/29 01:14:18;;;;;;;3.08;1.88;;;14.60;74.80;;;;;;5074812;28;20384;-39
2022/08/29 01:16:45;;;;;;;2.95;1.67;;;14.60;74.90;;;;;;5074337;28;20031;-37
2022/08/29 01:19:38;;;;;;;2.85;1.60;;;14.50;75.10;;;;;;5074291;28;20059;-40
2022/08/29 01:22:18;;;;;;;4.43;1.77;;;14.50;75.30;;;;;;5069669;28;20067;-38
2022/08/29 01:24:49;;;;;;;5.22;1.60;;;14.40;75.60;;;;;;5074010;28;20032;-38
2022/08/29 01:27:20;;;;;;;5.57;1.13;;;14.40;75.70;;;;;;5074151;28;20024;-38
2022/08/29 01:29:46;;;;;;;5.07;1.20;;;14.40;75.80;;;;;;5074538;28;20028;-38
2022/08/29 01:32:13;;;;;;;3.15;1.75;;;14.30;75.80;;;;;;5074042;28;20024;-38
2022/08/29 01:34:39;;;;;;;6.63;2.42;;;14.30;76.10;;;;;;5074466;28;20029;-39
2022/08/29 01:37:07;;;;;;;19.20;2.47;;;14.30;76.20;;;;;;5073645;28;20040;-39
2022/08/29 01:39:35;;;;;;;3.42;1.30;;;14.30;76.20;;;;;;5074009;28;20078;-39
2022/08/29 01:42:10;;;;;;;5.38;1.48;;;14.20;76.40;;;;;;5073854;28;20028;-45
2022/08/29 01:44:37;;;;;;;2.72;1.95;;;14.20;76.60;;;;;;5073938;28;20404;-39
2022/08/29 01:47:04;;;;;;;3.40;1.70;;;14.20;76.70;;;;;;5073883;28;20093;-38
2022/08/29 01:49:33;;;;;;;6.90;3.80;;;14.20;76.70;;;;;;5074750;28;20017;-38
2022/08/29 01:51:59;;;;;;;5.53;2.17;;;14.20;76.60;;;;;;5072464;28;20024;-38
2022/08/29 01:54:25;;;;;;;3.13;1.63;;;14.20;76.70;;;;;;5073494;28;20422;-38
2022/08/29 01:56:52;;;;;;;5.95;1.90;;;14.20;76.80;;;;;;5072424;28;20017;-38
2022/08/29 01:59:25;;;;;;;4.72;1.77;;;14.10;77.00;;;;;;5073871;28;20381;-38
2022/08/29 02:02:03;;;;;;;7.75;2.05;;;14.10;77.00;;;;;;5074004;28;20380;-39
2022/08/29 02:04:30;;;;;;;3.72;1.48;;;14.10;77.10;;;;;;5073926;28;20029;-38
2022/08/29 02:06:57;;;;;;;2.95;1.35;;;14.10;77.20;;;;;;5073406;28;20020;-38
2022/08/29 02:09:24;;;;;;;5.57;2.10;;;14.10;77.10;;;;;;5073594;28;20024;-38
2022/08/29 02:11:51;;;;;;;6.90;1.52;;;14.00;77.30;;;;;;5073843;28;20584;-41
2022/08/29 02:14:17;;;;;;;5.13;1.50;;;14.00;77.20;;;;;;5072988;28;20024;-39
2022/08/29 02:16:43;;;;;;;3.63;1.67;;;13.90;77.20;;;;;;5072941;28;20028;-38
2022/08/29 02:19:08;;;;;;;2.28;1.77;;;13.90;77.20;;;;;;5073022;28;20497;-39
2022/08/29 02:21:34;;;;;;;3.58;1.83;;;13.90;76.90;;;;;;5073499;28;20020;-39
2022/08/29 02:24:03;;;;;;;2.97;1.70;;;13.80;77.20;;;;;;5071984;28;20024;-38
2022/08/29 02:26:28;;;;;;;5.68;2.25;;;13.70;77.50;;;;;;5073186;28;20052;-38
2022/08/29 02:28:55;;;;;;;9.75;2.55;;;13.60;78.00;;;;;;5072994;28;20023;-39
2022/08/29 02:31:21;;;;;;;5.53;1.45;;;13.50;78.20;;;;;;5072892;28;20031;-38
2022/08/29 02:33:48;;;;;;;2.35;1.60;;;13.50;78.40;;;;;;5071686;28;20024;-39
2022/08/29 02:36:13;;;;;;;4.18;2.28;;;13.50;78.30;;;;;;5073201;28;20064;-38
2022/08/29 02:38:40;;;;;;;3.15;1.60;;;13.40;78.70;;;;;;5073129;28;20067;-38
2022/08/29 02:41:06;;;;;;;7.40;1.63;;;13.30;78.80;;;;;;5072924;28;20090;-38
2022/08/29 02:43:32;;;;;;;4.93;1.45;;;13.40;79.00;;;;;;5072296;28;20356;-38
2022/08/29 02:45:57;;;;;;;8.40;2.33;;;13.40;78.60;;;;;;5072774;28;20037;-39
2022/08/29 02:48:24;;;;;;;3.38;1.75;;;13.40;78.80;;;;;;5072845;28;20101;-39
2022/08/29 02:50:52;;;;;;;6.03;2.85;;;13.40;79.00;;;;;;5072661;28;20032;-38
2022/08/29 02:53:23;;;;;;;4.00;1.50;;;13.40;79.10;;;;;;5073103;28;20048;-38
2022/08/29 02:55:50;;;;;;;7.60;2.30;;;13.40;79.10;;;;;;5072668;28;20025;-38
2022/08/29 02:58:17;;;;;;;3.28;1.45;;;13.40;79.10;;;;;;5073141;28;20376;-39
2022/08/29 03:00:42;;;;;;;8.23;2.05;;;13.40;79.10;;;;;;5072710;28;20028;-39
2022/08/29 03:03:08;;;;;;;4.55;1.65;;;13.50;79.10;;;;;;5071335;28;20051;-39
2022/08/29 03:05:36;;;;;;;3.78;2.03;;;13.50;79.20;;;;;;5072722;28;20028;-38
2022/08/29 03:08:04;;;;;;;3.80;1.30;;;13.50;79.20;;;;;;5077157;28;20020;-38
2022/08/29 03:10:30;;;;;;;10.18;2.10;;;13.50;79.40;;;;;;5076809;28;20063;-38
2022/08/29 03:12:56;;;;;;;3.00;2.58;;;13.50;79.60;;;;;;5076559;28;20048;-39
2022/08/29 03:15:22;;;;;;;3.50;1.60;;;13.60;79.40;;;;;;5075163;28;20048;-38
2022/08/29 03:17:48;;;;;;;7.15;2.05;;;13.50;79.40;;;;;;5076541;28;20032;-38
2022/08/29 03:20:17;;;;;;;3.33;1.95;;;13.60;79.30;;;;;;5076693;28;20487;-38
2022/08/29 03:22:43;;;;;;;3.53;1.52;;;13.50;78.90;;;;;;5076922;28;20032;-38
2022/08/29 03:25:11;;;;;;;3.78;1.95;;;13.40;79.20;;;;;;5076612;28;20028;-38
2022/08/29 03:27:37;;;;;;;3.97;2.45;;;13.30;79.60;;;;;;5076390;28;20028;-38
2022/08/29 03:30:04;;;;;;;7.28;2.45;;;13.30;79.90;;;;;;5075227;28;20366;-40
2022/08/29 03:32:30;;;;;;;3.90;2.00;;;13.30;80.20;;;;;;5076388;28;20013;-38
2022/08/29 03:34:56;;;;;;;4.07;1.58;;;13.30;80.20;;;;;;5074987;28;20035;-40
2022/08/29 03:37:21;;;;;;;2.60;1.88;;;13.30;80.40;;;;;;5076192;28;20031;-39
2022/08/29 03:39:47;;;;;;;10.65;2.17;;;13.30;80.30;;;;;;5076135;28;20029;-38
2022/08/29 03:42:13;;;;;;;4.43;2.15;;;13.40;80.50;;;;;;5076134;28;20024;-39
2022/08/29 03:44:40;;;;;;;4.65;1.95;;;13.50;80.40;;;;;;5075787;28;20052;-38
2022/08/29 03:47:08;;;;;;;5.53;2.88;;;13.50;80.20;;;;;;5074787;28;20020;-38
2022/08/29 03:49:33;;;;;;;7.50;2.10;;;13.40;80.20;;;;;;5075954;28;20081;-38
2022/08/29 03:52:00;;;;;;;7.25;2.30;;;13.50;80.20;;;;;;5076093;28;20025;-38
2022/08/29 03:54:26;;;;;;;2.42;1.70;;;13.50;80.30;;;;;;5074589;28;20056;-39
2022/08/29 03:56:52;;;;;;;3.88;2.13;;;13.60;80.20;;;;;;5076310;28;20481;-38
2022/08/29 03:59:18;;;;;;;4.88;2.25;;;13.60;80.10;;;;;;5076449;28;20021;-39
2022/08/29 04:01:46;;;;;;;10.65;2.33;;;13.60;80.30;;;;;;5076170;28;20032;-38
2022/08/29 04:05:05;;;;;;;8.18;2.10;;;13.60;79.80;;;;;;5076661;28;20024;-39
2022/08/29 04:07:00;;;;;;;6.95;2.95;;;13.60;79.30;;;;;;5075652;28;20036;-38
2022/08/29 04:09:26;;;;;;;8.35;2.17;;;13.60;79.10;;;;;;5074431;28;20020;-39
2022/08/29 04:11:51;;;;;;;5.18;3.25;;;13.60;78.50;;;;;;5075846;28;20032;-38
2022/08/29 04:14:19;;;;;;;6.38;2.85;;;13.60;78.50;;;;;;5075734;28;20054;-38
2022/08/29 04:16:53;;;;;;;5.03;1.85;;;13.40;78.60;;;;;;5075227;28;20036;-40
2022/08/29 04:19:20;;;;;;;5.32;2.10;;;13.30;78.70;;;;;;5075865;28;20052;-39
2022/08/29 04:21:47;;;;;;;10.45;2.58;;;13.20;79.00;;;;;;5075487;28;20029;-38
2022/08/29 18:46:04;;;;;;;7.38;2.17;;;21.70;51.00;;;;;;5131720;27;20407;-49
2022/08/29 18:48:39;;;;;;;3.95;1.90;;;21.60;51.30;;;;;;5132364;28;20110;-44
2022/08/29 18:51:05;;;;;;;3.42;1.98;;;21.50;51.50;;;;;;5115784;28;20019;-41
2022/08/29 18:53:31;;;;;;;3.13;2.00;;;21.50;51.70;;;;;;5132244;28;20027;-40
2022/08/29 18:55:59;;;;;;;7.32;2.05;;;21.40;51.90;;;;;;5131494;28;20026;-39
2022/08/29 18:58:27;;;;;;;8.77;2.35;;;21.40;52.00;;;;;;5131719;28;20023;-39
2022/08/29 19:01:19;;;;;;;7.93;2.20;;;21.30;52.10;;;;;;5134054;28;20111;-49
2022/08/29 19:03:44;;;;;;;4.60;2.00;;;21.30;52.20;;;;;;5111320;28;20036;-39
2022/08/29 19:06:12;;;;;;;6.15;2.15;;;21.30;52.30;;;;;;5132297;28;20082;-37
2022/08/29 19:08:38;;;;;;;4.47;2.05;;;21.30;52.30;;;;;;5131670;28;20148;-38
2022/08/29 19:11:06;;;;;;;2.88;1.98;;;21.30;52.40;;;;;;5130390;28;20503;-39
2022/08/29 19:13:34;;;;;;;8.13;2.50;;;21.30;52.40;;;;;;5131204;28;20155;-38
2022/08/29 19:16:01;;;;;;;3.55;1.95;;;21.30;52.40;;;;;;5131200;28;20028;-38
2022/08/29 19:18:27;;;;;;;6.65;2.28;;;21.30;52.50;;;;;;5131247;28;20098;-38
2022/08/29 19:21:04;;;;;;;5.30;2.58;;;21.20;52.70;;;;;;5131031;28;20047;-38
2022/08/29 19:23:36;;;;;;;3.33;2.10;;;21.20;52.70;;;;;;5131036;28;20152;-39
2022/08/29 19:26:05;;;;;;;4.95;2.22;;;21.10;53.00;;;;;;5130826;28;20034;-39
2022/08/29 19:28:32;;;;;;;5.57;2.90;;;21.00;53.30;;;;;;5131498;28;20020;-38
2022/08/29 19:30:57;;;;;;;6.93;2.40;;;20.90;53.50;;;;;;5112468;28;20108;-39
2022/08/29 19:33:23;;;;;;;6.65;2.75;;;20.90;53.60;;;;;;5131280;28;20031;-39
2022/08/29 19:35:50;;;;;;;5.38;2.25;;;20.80;53.80;;;;;;5130434;28;20099;-37
2022/08/29 19:38:18;;;;;;;3.60;1.90;;;20.80;54.00;;;;;;5131202;28;20429;-38
2022/08/29 19:40:44;;;;;;;7.68;2.85;;;20.80;54.10;;;;;;5130631;28;20486;-39
2022/08/29 19:43:14;;;;;;;7.88;3.10;;;20.80;54.30;;;;;;5130858;28;20096;-40
2022/08/29 19:45:41;;;;;;;6.27;2.53;;;20.70;54.50;;;;;;5129535;28;20532;-39
2022/08/29 19:48:07;;;;;;;3.08;2.35;;;20.70;54.60;;;;;;5130305;28;20253;-39
2022/08/29 19:50:32;;;;;;;4.32;2.63;;;20.70;54.80;;;;;;5130150;28;20488;-38
2022/08/29 19:52:59;;;;;;;5.15;2.17;;;20.60;55.00;;;;;;5130340;28;20023;-38
2022/08/29 19:55:25;;;;;;;5.05;3.03;;;20.60;55.10;;;;;;5126491;28;20020;-39
2022/08/29 19:57:51;;;;;;;4.38;2.03;;;20.50;55.30;;;;;;5116541;28;20047;-38
2022/08/29 20:00:22;;;;;;;5.95;2.55;;;20.50;55.60;;;;;;5116863;28;20474;-39
2022/08/29 20:02:49;;;;;;;3.22;1.92;;;20.50;55.70;;;;;;5116237;28;20029;-38
2022/08/29 20:05:16;;;;;;;3.70;2.42;;;20.40;55.90;;;;;;5116411;28;20096;-38
2022/08/29 20:07:43;;;;;;;5.18;2.42;;;20.40;56.10;;;;;;5116301;28;20015;-38
2022/08/29 20:10:12;;;;;;;2.90;1.80;;;20.30;56.40;;;;;;5080947;28;20027;-38
2022/08/29 20:12:38;;;;;;;7.38;4.03;;;20.30;56.40;;;;;;5116075;28;20020;-39
2022/08/29 20:15:06;;;;;;;5.28;2.40;;;20.30;56.50;;;;;;5116092;28;20112;-38
2022/08/29 20:17:33;;;;;;;4.40;1.95;;;20.30;56.80;;;;;;5115925;28;20051;-39
2022/08/29 20:19:59;;;;;;;3.47;2.38;;;20.30;56.80;;;;;;5115649;28;20047;-41
2022/08/29 20:22:27;;;;;;;4.22;2.20;;;20.30;57.00;;;;;;5115756;28;20024;-38
2022/08/29 20:24:54;;;;;;;4.82;1.90;;;20.30;57.10;;;;;;5115530;28;20194;-38
2022/08/29 20:27:21;;;;;;;5.63;1.95;;;20.30;57.30;;;;;;5116009;28;20078;-44
2022/08/29 20:29:47;;;;;;;5.45;1.55;;;20.30;57.50;;;;;;5097356;28;20024;-38
2022/08/29 20:32:12;;;;;;;4.10;1.80;;;20.20;57.70;;;;;;5114221;28;20122;-38
2022/08/29 20:34:38;;;;;;;4.53;2.70;;;20.20;58.00;;;;;;5115846;28;20028;-39
2022/08/29 20:37:11;;;;;;;8.52;2.03;;;20.20;58.40;;;;;;5115826;28;20024;-39
2022/08/29 20:39:40;;;;;;;6.32;2.45;;;20.10;58.70;;;;;;5117132;28;20052;-39
2022/08/29 20:42:07;;;;;;;4.10;2.13;;;20.10;59.20;;;;;;5116935;28;20023;-39
2022/08/29 20:44:36;;;;;;;6.68;2.03;;;20.10;59.50;;;;;;5115352;28;20130;-40
2022/08/29 20:47:06;;;;;;;7.15;3.03;;;20.00;59.80;;;;;;5114980;28;20024;-39
2022/08/29 20:49:33;;;;;;;3.38;2.08;;;20.10;60.10;;;;;;5116517;28;20039;-40
2022/08/29 20:51:59;;;;;;;4.07;2.40;;;20.10;60.50;;;;;;5114958;28;20024;-41
2022/08/29 20:54:25;;;;;;;3.35;2.05;;;20.10;60.70;;;;;;5115959;28;20505;-39
2022/08/29 20:56:51;;;;;;;8.15;3.05;;;20.00;61.10;;;;;;5114580;28;20019;-39
2022/08/29 20:59:18;;;;;;;3.50;2.17;;;20.00;61.40;;;;;;5115572;28;20085;-39
2022/08/29 21:01:43;;;;;;;11.10;3.33;;;20.00;61.80;;;;;;5115946;28;20023;-38
2022/08/29 21:07:01;;;;;;;3.63;2.13;;;19.90;62.50;;;;;;5115144;28;20033;-41
2022/08/29 21:09:27;;;;;;;10.52;2.72;;;19.80;62.60;;;;;;5114953;28;20463;-39
2022/08/29 21:11:53;;;;;;;5.72;2.55;;;19.80;62.80;;;;;;5114868;28;20069;-39
2022/08/29 21:14:21;;;;;;;3.08;2.47;;;19.80;63.00;;;;;;5114836;28;20020;-39
2022/08/29 21:16:47;;;;;;;7.13;3.08;;;19.80;63.30;;;;;;5115035;28;20475;-38
2022/08/29 21:19:13;;;;;;;4.88;2.40;;;19.80;63.50;;;;;;5114841;28;20039;-39
2022/08/29 21:21:40;;;;;;;3.75;2.40;;;19.80;63.80;;;;;;5114737;28;20032;-39
2022/08/29 21:24:07;;;;;;;7.15;2.60;;;19.70;64.00;;;;;;5114593;28;20028;-39
2022/08/29 21:26:33;;;;;;;7.45;3.03;;;19.80;64.30;;;;;;5114877;28;20053;-38
2022/08/29 21:29:00;;;;;;;2.85;2.47;;;19.80;64.40;;;;;;5114591;28;20047;-38
2022/08/29 21:31:26;;;;;;;4.32;2.63;;;19.70;64.80;;;;;;5113709;28;20028;-39
2022/08/29 21:33:51;;;;;;;7.22;2.83;;;19.70;64.80;;;;;;5115524;28;20031;-38
2022/08/29 21:36:23;;;;;;;9.40;2.83;;;19.70;64.90;;;;;;5114364;28;20463;-38
2022/08/29 21:38:52;;;;;;;8.93;3.30;;;19.70;65.20;;;;;;5114967;28;20039;-39
2022/08/29 21:41:20;;;;;;;5.07;3.35;;;19.60;65.30;;;;;;5115238;28;20027;-41
2022/08/29 21:43:46;;;;;;;9.18;3.38;;;19.60;65.50;;;;;;5115021;28;20032;-39
2022/08/29 21:46:19;;;;;;;4.32;2.65;;;19.50;65.80;;;;;;5114701;28;20459;-38
2022/08/29 21:48:46;;;;;;;12.30;3.55;;;19.50;66.00;;;;;;5113729;28;20463;-39
2022/08/29 21:51:16;;;;;;;9.00;2.42;;;19.40;66.20;;;;;;5115683;28;20030;-39
2022/08/29 21:53:43;;;;;;;9.07;3.03;;;19.40;66.40;;;;;;5115423;28;20099;-39
2022/08/29 21:56:09;;;;;;;6.78;2.55;;;19.40;66.60;;;;;;5097689;28;20024;-38
2022/08/29 21:58:35;;;;;;;7.00;2.88;;;19.30;66.80;;;;;;5113267;28;20031;-39
2022/08/29 22:01:01;;;;;;;8.27;2.80;;;19.30;67.00;;;;;;5115141;28;20122;-38
2022/08/29 22:03:26;;;;;;;11.65;3.33;;;19.30;67.20;;;;;;5114713;28;20133;-38
2022/08/29 22:05:53;;;;;;;4.53;2.58;;;19.30;67.30;;;;;;5112867;28;20020;-41
2022/08/29 22:08:20;;;;;;;6.47;2.97;;;19.20;67.60;;;;;;5113257;28;20020;-40
2022/08/29 22:10:46;;;;;;;20.38;3.35;;;19.30;67.70;;;;;;5114519;28;20016;-39
2022/08/29 22:13:13;;;;;;;6.75;3.10;;;19.30;67.80;;;;;;5114390;28;20028;-38
2022/08/29 22:18:23;;;;;;;4.70;3.10;;;19.20;68.20;;;;;;5115217;28;20110;-39
2022/08/29 22:20:49;;;;;;;6.05;2.97;;;19.20;68.40;;;;;;5115448;28;20507;-39
2022/08/29 22:23:16;;;;;;;5.75;2.88;;;19.10;68.60;;;;;;5096205;28;20035;-39
2022/08/29 22:25:42;;;;;;;5.72;2.45;;;19.10;68.60;;;;;;5114096;28;20054;-39
2022/08/29 22:28:10;;;;;;;3.80;2.70;;;19.10;68.70;;;;;;5112857;28;20110;-39
2022/08/29 22:30:36;;;;;;;8.82;2.47;;;19.00;69.00;;;;;;5114755;28;20062;-40
2022/08/29 22:33:04;;;;;;;8.00;3.22;;;19.00;69.30;;;;;;5114246;28;20035;-39
2022/08/29 22:35:30;;;;;;;4.68;2.50;;;19.00;69.30;;;;;;5114165;28;20110;-39
2022/08/29 22:37:56;;;;;;;5.10;2.53;;;18.90;69.60;;;;;;5114502;28;20030;-39
2022/08/29 22:40:22;;;;;;;7.25;3.17;;;18.80;69.80;;;;;;5114032;28;20032;-38
2022/08/29 22:42:48;;;;;;;3.67;2.55;;;18.80;70.00;;;;;;5114040;28;20024;-39
2022/08/29 22:45:15;;;;;;;4.22;2.70;;;18.80;70.20;;;;;;5112057;28;20113;-39
2022/08/29 22:47:42;;;;;;;8.85;2.92;;;18.80;70.20;;;;;;5113893;28;20048;-39
2022/08/29 22:50:14;;;;;;;14.68;5.07;;;18.80;70.10;;;;;;5114058;28;20031;-38
2022/08/29 22:52:40;;;;;;;3.08;2.42;;;18.80;70.10;;;;;;5114754;28;20102;-38
2022/08/29 22:55:08;;;;;;;3.90;2.97;;;18.80;69.90;;;;;;5113126;28;20487;-39
2022/08/29 22:57:34;;;;;;;6.88;3.30;;;18.80;70.00;;;;;;5113454;28;20024;-39
2022/08/29 23:00:02;;;;;;;5.18;2.90;;;18.80;70.20;;;;;;5113531;28;20027;-39
2022/08/29 23:02:28;;;;;;;3.08;2.35;;;18.70;70.40;;;;;;5113637;28;20027;-39
2022/08/29 23:04:53;;;;;;;2.50;2.30;;;18.70;70.60;;;;;;5113247;28;20534;-38
2022/08/29 23:07:19;;;;;;;6.10;2.92;;;18.60;70.80;;;;;;5113203;28;20058;-38
2022/08/29 23:09:45;;;;;;;5.85;2.63;;;18.60;70.80;;;;;;5113322;28;20027;-45
2022/08/29 23:12:12;;;;;;;9.15;3.78;;;18.60;70.90;;;;;;5113778;28;20047;-37
2022/08/29 23:14:39;;;;;;;3.58;2.70;;;18.70;70.90;;;;;;5113437;28;20179;-37
2022/08/29 23:17:06;;;;;;;8.48;2.67;;;18.70;71.00;;;;;;5113474;28;20019;-37
2022/08/29 23:19:33;;;;;;;4.13;2.08;;;18.60;71.10;;;;;;5113259;28;20031;-39
2022/08/29 23:21:59;;;;;;;4.45;2.55;;;18.60;71.10;;;;;;5113828;28;20032;-38
2022/08/29 23:24:25;;;;;;;4.53;2.92;;;18.60;71.20;;;;;;5113347;28;20027;-38
2022/08/29 23:26:51;;;;;;;4.05;2.83;;;18.50;71.30;;;;;;5113555;28;20023;-43
2022/08/29 23:29:18;;;;;;;2.95;2.35;;;18.50;71.40;;;;;;5112050;28;20353;-46
2022/08/29 23:31:45;;;;;;;4.57;2.00;;;18.50;71.60;;;;;;5115595;28;20028;-43
2022/08/29 23:34:10;;;;;;;3.88;2.15;;;18.50;71.70;;;;;;5117265;28;20374;-38
2022/08/29 23:36:37;;;;;;;4.40;2.40;;;18.50;71.70;;;;;;5115923;28;20118;-39
2022/08/29 23:39:04;;;;;;;6.35;2.83;;;18.50;71.70;;;;;;5117184;28;20110;-39
2022/08/29 23:41:30;;;;;;;5.15;2.58;;;18.50;71.70;;;;;;5115684;28;20027;-38
2022/08/29 23:43:56;;;;;;;2.85;2.03;;;18.40;71.80;;;;;;5115367;28;20030;-38
2022/08/29 23:46:22;;;;;;;5.57;2.63;;;18.40;72.00;;;;;;5116958;28;20019;-38
2022/08/29 23:48:48;;;;;;;4.00;2.03;;;18.40;72.00;;;;;;5116613;28;20026;-38
2022/08/29 23:51:15;;;;;;;8.75;2.33;;;18.40;72.00;;;;;;5116829;28;20024;-38
2022/08/29 23:53:42;;;;;;;4.97;2.17;;;18.40;72.00;;;;;;5117009;28;20027;-39
2022/08/29 23:56:13;;;;;;;4.47;2.30;;;18.40;72.00;;;;;;5116592;28;20015;-39
2022/08/29 23:58:39;;;;;;;3.67;2.22;;;18.30;72.10;;;;;;5116541;28;20024;-39
